Time;durP1;ratioP1;P1;durP2;ratioP2;P2;SDS_P1;SDS_P2;PMS_P1;PMS_P2;Temp;Humidity;BMP_temperature;BMP_pressure;BME280_temperature;BME280_humidity;BME280_pressure;Samples;Min_cycle;Max_cycle;Signal;HPM_P1;HPM_P2
2023/11/25 00:01:02;;;;;;;6.90;5.90;;;;;;;0.60;100.00;94447.24;107203;1268;138560;-87
2023/11/25 00:03:39;;;;;;;7.90;5.70;;;;;;;0.62;100.00;94443.73;107309;1269;22549;-86
2023/11/25 00:06:05;;;;;;;7.50;5.60;;;;;;;0.62;100.00;94449.79;107087;1271;138790;-87
2023/11/25 00:08:31;;;;;;;8.00;6.20;;;;;;;0.63;100.00;94449.70;107307;1271;22531;-86
2023/11/25 00:10:57;;;;;;;7.40;6.10;;;;;;;0.66;100.00;94448.11;107369;1266;24260;-87
2023/11/25 00:13:24;;;;;;;8.50;6.30;;;;;;;0.66;100.00;94449.18;107233;1271;137922;-87
2023/11/25 00:15:50;;;;;;;12.10;5.90;;;;;;;0.68;100.00;94448.86;107164;1272;25289;-86
2023/11/25 00:18:16;;;;;;;6.90;4.50;;;;;;;0.70;100.00;94444.09;107150;1270;139039;-86
2023/11/25 00:20:43;;;;;;;6.00;5.10;;;;;;;0.69;100.00;94441.56;107199;1271;22543;-87
2023/11/25 00:23:08;;;;;;;6.40;4.80;;;;;;;0.71;100.00;94438.92;107315;1270;23177;-87
2023/11/25 00:25:34;;;;;;;6.10;4.60;;;;;;;0.73;100.00;94440.89;107113;1274;138105;-87
2023/11/25 00:28:00;;;;;;;5.30;4.30;;;;;;;0.75;100.00;94436.60;107391;1268;25072;-87
2023/11/25 00:30:26;;;;;;;6.10;4.40;;;;;;;0.75;100.00;94438.13;107266;1269;138244;-86
2023/11/25 00:32:54;;;;;;;5.60;4.60;;;;;;;0.76;100.00;94442.63;107292;1269;24252;-86
2023/11/25 00:35:20;;;;;;;6.40;4.30;;;;;;;0.79;100.00;94446.79;107210;1271;24389;-86
2023/11/25 00:37:46;;;;;;;5.20;4.20;;;;;;;0.80;100.00;94448.35;107202;1275;138283;-86
2023/11/25 00:40:16;;;;;;;6.40;4.80;;;;;;;0.80;100.00;94448.67;107321;1273;23910;-87
2023/11/25 00:42:42;;;;;;;6.20;4.50;;;;;;;0.81;100.00;94443.79;107065;1271;140083;-87
2023/11/25 00:45:14;;;;;;;7.20;4.70;;;;;;;0.82;100.00;94440.83;107429;1270;22549;-86
2023/11/25 00:47:41;;;;;;;5.80;4.20;;;;;;;0.82;100.00;94436.25;107298;1271;25486;-86
2023/11/25 00:50:15;;;;;;;5.80;3.60;;;;;;;0.82;100.00;94438.27;107298;1269;138009;-86
2023/11/25 00:52:41;;;;;;;6.10;4.40;;;;;;;0.80;100.00;94432.43;107180;1271;25548;-87
2023/11/25 00:55:08;;;;;;;6.30;4.90;;;;;;;0.79;100.00;94430.84;107260;1269;138680;-87
2023/11/25 00:57:35;;;;;;;5.60;4.30;;;;;;;0.80;100.00;94428.73;107384;1269;23521;-86
2023/11/25 01:00:04;;;;;;;5.30;4.40;;;;;;;0.81;100.00;94426.27;107298;1268;139265;-86
2023/11/25 01:02:30;;;;;;;5.20;3.60;;;;;;;0.80;100.00;94422.76;107211;1270;22536;-87
2023/11/25 01:04:56;;;;;;;5.10;4.30;;;;;;;0.78;100.00;94411.77;107397;1270;24240;-86
2023/11/25 01:07:22;;;;;;;4.70;3.90;;;;;;;0.78;100.00;94413.66;107057;1271;138629;-87
2023/11/25 01:09:49;;;;;;;4.70;3.70;;;;;;;0.78;100.00;94419.23;107340;1253;25579;-86
2023/11/25 01:12:15;;;;;;;4.80;3.50;;;;;;;0.77;100.00;94416.14;107188;1272;138965;-86
2023/11/25 01:14:42;;;;;;;6.30;3.80;;;;;;;0.75;100.00;94412.98;107381;1269;25187;-86
2023/11/25 01:17:08;;;;;;;6.00;3.70;;;;;;;0.74;100.00;94413.37;107350;1273;22544;-87
2023/11/25 01:19:35;;;;;;;5.00;3.60;;;;;;;0.73;100.00;94409.77;107204;1269;138003;-87
2023/11/25 01:22:01;;;;;;;5.60;3.50;;;;;;;0.74;100.00;94415.52;107294;1266;24204;-86
2023/11/25 01:24:26;;;;;;;5.40;3.90;;;;;;;0.73;100.00;94406.93;107680;1268;138779;-87
2023/11/25 01:26:52;;;;;;;5.80;4.30;;;;;;;0.72;100.00;94403.96;107532;1276;22531;-87
2023/11/25 01:29:18;;;;;;;5.00;4.10;;;;;;;0.71;100.00;94404.67;107768;1270;25342;-87
2023/11/25 01:31:44;;;;;;;3.40;3.10;;;;;;;0.70;100.00;94405.29;107545;1275;138017;-87
2023/11/25 01:34:11;;;;;;;4.10;3.20;;;;;;;0.70;100.00;94406.38;107404;1275;22756;-87
2023/11/25 01:36:37;;;;;;;4.40;2.80;;;;;;;0.69;100.00;94401.38;107025;1272;138304;-87
2023/11/25 01:39:05;;;;;;;2.80;2.60;;;;;;;0.68;100.00;94399.65;107252;1276;22535;-87
2023/11/25 01:41:31;;;;;;;4.50;3.50;;;;;;;0.67;100.00;94395.35;107322;1276;26702;-86
2023/11/25 01:43:58;;;;;;;4.90;3.60;;;;;;;0.68;100.00;94396.40;107242;1276;138407;-87
2023/11/25 01:46:42;;;;;;;5.00;4.00;;;;;;;0.69;100.00;94392.52;107373;1276;22530;-87
2023/11/25 01:49:13;;;;;;;7.70;3.50;;;;;;;0.71;100.00;94382.91;107227;1274;138469;-87
2023/11/25 01:51:40;;;;;;;5.00;3.50;;;;;;;0.71;100.00;94380.67;110265;1276;22314;-88
2023/11/25 01:54:06;;;;;;;3.50;2.80;;;;;;;0.71;100.00;94383.95;110131;1276;138785;-87
2023/11/25 01:56:33;;;;;;;4.40;2.90;;;;;;;0.70;100.00;94383.92;110482;1275;22955;-87
2023/11/25 01:58:59;;;;;;;3.40;2.60;;;;;;;0.69;100.00;94384.30;110245;1266;22315;-88
2023/11/25 02:01:26;;;;;;;4.10;3.20;;;;;;;0.68;100.00;94383.58;110155;1269;139420;-88
2023/11/25 02:03:53;;;;;;;4.30;3.40;;;;;;;0.70;100.00;94377.40;110167;1276;23067;-88
2023/11/25 02:06:19;;;;;;;5.80;2.90;;;;;;;0.73;100.00;94373.67;107886;1273;138746;-87
2023/11/25 02:08:46;;;;;;;5.40;3.50;;;;;;;0.75;100.00;94372.73;107414;1276;22597;-88
2023/11/25 02:11:12;;;;;;;3.70;2.90;;;;;;;0.77;100.00;94365.20;107399;1276;22570;-87
2023/11/25 02:13:38;;;;;;;3.90;3.00;;;;;;;0.77;100.00;94369.83;107348;1275;138005;-87
2023/11/25 02:16:05;;;;;;;4.00;3.20;;;;;;;0.77;100.00;94377.27;107381;1276;23265;-87
2023/11/25 02:18:31;;;;;;;4.70;3.50;;;;;;;0.79;100.00;94384.86;107282;1274;138344;-87
2023/11/25 02:20:58;;;;;;;3.50;3.10;;;;;;;0.80;100.00;94387.46;107408;1276;25358;-87
2023/11/25 02:23:24;;;;;;;3.30;3.10;;;;;;;0.81;100.00;94388.27;107344;1276;24893;-87
2023/11/25 02:25:52;;;;;;;5.90;3.80;;;;;;;0.80;100.00;94386.45;107314;1276;137994;-87
2023/11/25 02:28:19;;;;;;;4.50;2.90;;;;;;;0.79;100.00;94385.53;109379;1276;22544;-87
2023/11/25 02:30:46;;;;;;;4.00;2.90;;;;;;;0.79;100.00;94383.90;107054;1275;138971;-86
2023/11/25 02:33:14;;;;;;;9.30;5.40;;;;;;;0.78;100.00;94384.81;107302;1276;22579;-87
2023/11/25 02:35:43;;;;;;;6.50;3.90;;;;;;;0.78;100.00;94381.86;110481;1276;22345;-87
2023/11/25 02:38:12;;;;;;;5.50;3.40;;;;;;;0.79;100.00;94380.99;110348;1276;139061;-88
2023/11/25 02:40:39;;;;;;;7.40;4.10;;;;;;;0.78;100.00;94381.55;110238;1276;22832;-88
2023/11/25 02:43:07;;;;;;;5.50;3.10;;;;;;;0.79;100.00;94379.46;110161;1265;138463;-87
2023/11/25 02:45:33;;;;;;;7.10;3.90;;;;;;;0.79;100.00;94388.05;108568;1274;276059;-87
2023/11/25 02:48:00;;;;;;;5.20;3.90;;;;;;;0.81;100.00;94392.20;107344;1276;22531;-87
2023/11/25 02:50:27;;;;;;;6.00;3.50;;;;;;;0.82;100.00;94396.34;107190;1275;22527;-87
2023/11/25 02:52:54;;;;;;;3.80;3.00;;;;;;;0.83;100.00;94396.08;107406;1276;22668;-87
2023/11/25 02:55:20;;;;;;;6.10;4.10;;;;;;;0.82;100.00;94398.25;107285;1275;137968;-87
2023/11/25 02:57:46;;;;;;;5.30;3.90;;;;;;;0.78;100.00;94399.70;107433;1275;22531;-87
2023/11/25 03:00:36;;;;;;;3.30;3.00;;;;;;;0.77;100.00;94401.63;107151;1276;139034;-87
2023/11/25 03:03:09;;;;;;;3.40;3.00;;;;;;;0.76;100.00;94397.39;107397;1276;22595;-87
2023/11/25 03:05:37;;;;;;;4.80;3.20;;;;;;;0.73;100.00;94400.38;107394;1276;22580;-87
2023/11/25 03:08:04;;;;;;;3.60;3.30;;;;;;;0.72;100.00;94402.08;110349;1269;138578;-88
2023/11/25 03:10:30;;;;;;;3.40;3.10;;;;;;;0.71;100.00;94410.17;107463;1275;24340;-87
2023/11/25 03:12:57;;;;;;;5.60;4.70;;;;;;;0.69;100.00;94404.95;107064;1271;138053;-87
2023/11/25 03:15:22;;;;;;;4.30;3.40;;;;;;;0.69;100.00;94408.88;107373;1276;22544;-87
2023/11/25 03:17:48;;;;;;;3.50;3.10;;;;;;;0.68;100.00;94413.55;107378;1275;25489;-88
2023/11/25 03:20:15;;;;;;;4.90;4.10;;;;;;;0.67;100.00;94412.31;107301;1266;138379;-87
2023/11/25 03:22:40;;;;;;;3.50;3.20;;;;;;;0.67;100.00;94415.61;107442;1276;22548;-87
2023/11/25 03:25:07;;;;;;;4.80;3.70;;;;;;;0.65;100.00;94420.88;107334;1275;138588;-87
2023/11/25 03:27:35;;;;;;;4.20;3.60;;;;;;;0.63;100.00;94423.17;107384;1276;22533;-88
2023/11/25 03:30:07;;;;;;;4.90;3.90;;;;;;;0.63;100.00;94425.86;107093;1276;138106;-86
2023/11/25 03:32:34;;;;;;;;;;;;;;;0.63;100.00;94428.77;107425;1269;22512;-87
2023/11/25 03:35:01;;;;;;;3.80;3.30;;;;;;;0.58;100.00;94430.70;107483;1276;22530;-87
2023/11/25 03:37:27;;;;;;;4.80;2.70;;;;;;;0.55;100.00;94430.36;107257;1276;138516;-87
